Time;durP1;ratioP1;P1;durP2;ratioP2;P2;SDS_P1;SDS_P2;PMS_P1;PMS_P2;Temp;Humidity;BMP_temperature;BMP_pressure;BME280_temperature;BME280_humidity;BME280_pressure;Samples;Min_cycle;Max_cycle;Signal;HPM_P1;HPM_P2
2022/02/22 00:01:33;;;;;;;6.20;1.57;;;;;;;6.55;74.34;98547.16;5015295;27;103185;-67
2022/02/22 00:04:02;;;;;;;8.00;1.63;;;;;;;6.51;75.47;98553.53;5013074;27;102575;-67
2022/02/22 00:06:30;;;;;;;5.57;1.70;;;;;;;6.54;74.80;98571.75;5014795;27;103692;-67
2022/02/22 00:08:58;;;;;;;4.87;1.40;;;;;;;6.54;74.67;98566.50;5015351;27;103815;-67
2022/02/22 00:11:26;;;;;;;3.53;1.27;;;;;;;6.54;74.59;98564.69;5017726;27;103184;-67
2022/02/22 00:13:54;;;;;;;4.83;1.40;;;;;;;6.52;74.51;98565.72;5018474;27;102804;-69
2022/02/22 00:16:22;;;;;;;4.23;1.93;;;;;;;6.53;73.97;98551.66;5020287;27;103917;-69
2022/02/22 00:18:50;;;;;;;5.27;1.60;;;;;;;6.49;74.11;98560.63;5021162;27;103632;-69
2022/02/22 00:21:20;;;;;;;4.33;1.27;;;;;;;6.55;74.65;98562.91;5020143;27;103379;-69
2022/02/22 00:23:48;;;;;;;4.80;1.50;;;;;;;6.48;74.50;98562.44;5017279;27;103092;-69
2022/02/22 00:26:16;;;;;;;6.60;1.60;;;;;;;6.44;75.05;98574.03;5021422;27;102835;-69
2022/02/22 00:28:46;;;;;;;3.17;1.20;;;;;;;6.40;75.07;98581.22;5019720;27;104543;-68
2022/02/22 00:31:14;;;;;;;4.17;1.50;;;;;;;6.36;75.89;98589.38;5016087;27;103234;-66
2022/02/22 00:33:44;;;;;;;3.27;1.30;;;;;;;6.34;76.58;98596.50;5020327;27;102660;-66
2022/02/22 00:36:12;;;;;;;7.10;1.40;;;;;;;6.39;76.45;98595.31;5020786;27;102716;-66
2022/02/22 00:38:44;;;;;;;5.83;1.30;;;;;;;6.23;76.50;98594.44;5020517;27;103795;-68
2022/02/22 00:41:12;;;;;;;6.20;1.50;;;;;;;6.22;75.68;98592.78;5020390;27;103268;-69
2022/02/22 00:43:40;;;;;;;5.33;1.47;;;;;;;6.30;75.22;98610.72;5020769;27;102894;-67
2022/02/22 00:46:08;;;;;;;4.90;1.17;;;;;;;6.24;75.12;98617.16;5021418;27;103773;-69
2022/02/22 00:48:36;;;;;;;4.47;1.47;;;;;;;6.26;74.10;98620.53;5020891;27;103140;-66
2022/02/22 00:51:06;;;;;;;5.93;1.80;;;;;;;6.33;74.39;98627.13;5020888;27;103186;-69
2022/02/22 00:53:34;;;;;;;5.77;1.40;;;;;;;6.28;74.50;98634.41;5020675;27;102594;-69
2022/02/22 00:56:04;;;;;;;5.30;1.73;;;;;;;6.28;74.08;98642.28;5021955;27;103811;-69
2022/02/22 00:58:32;;;;;;;4.63;1.93;;;;;;;6.29;73.79;98641.34;5010726;27;103187;-69
2022/02/22 01:01:00;;;;;;;7.07;1.67;;;;;;;6.35;73.55;98646.25;5022565;27;102994;-69
2022/02/22 01:03:28;;;;;;;4.53;1.60;;;;;;;6.33;73.08;98650.75;5020112;27;102737;-69
2022/02/22 01:05:56;;;;;;;9.80;1.90;;;;;;;6.27;73.11;98663.34;5015000;27;102697;-69
2022/02/22 01:08:24;;;;;;;6.57;1.53;;;;;;;6.30;73.46;98673.69;5007009;27;104198;-69
2022/02/22 01:10:52;;;;;;;6.70;1.70;;;;;;;6.20;74.03;98673.31;5016440;27;103327;-69
2022/02/22 01:13:23;;;;;;;5.77;1.67;;;;;;;6.25;73.69;98660.81;5021005;27;102689;-69
2022/02/22 01:15:51;;;;;;;4.93;1.80;;;;;;;6.28;72.46;98676.41;5019959;27;103947;-69
2022/02/22 01:18:19;;;;;;;4.30;1.43;;;;;;;6.38;72.26;98687.22;5012923;27;103896;-69
2022/02/22 01:20:46;;;;;;;5.73;1.47;;;;;;;6.41;73.00;98693.16;5018225;27;103234;-69
2022/02/22 01:23:14;;;;;;;5.27;1.73;;;;;;;6.29;73.67;98682.47;5016459;27;102601;-69
2022/02/22 01:25:43;;;;;;;6.10;1.87;;;;;;;6.20;74.65;98690.88;5022886;27;103863;-67
2022/02/22 01:28:11;;;;;;;4.33;1.43;;;;;;;6.24;75.34;98716.00;5020037;27;103273;-66
2022/02/22 01:30:40;;;;;;;6.83;1.50;;;;;;;6.30;75.78;98715.66;5017108;27;103128;-67
2022/02/22 01:33:11;;;;;;;5.80;1.67;;;;;;;6.15;77.21;98716.47;5016715;27;102643;-66
2022/02/22 01:35:40;;;;;;;3.40;1.30;;;;;;;6.11;78.86;98723.69;5020009;27;103983;-69
2022/02/22 01:38:08;;;;;;;6.40;1.87;;;;;;;6.04;80.11;98719.69;5020065;27;103289;-68
2022/02/22 01:40:38;;;;;;;6.97;1.67;;;;;;;5.92;80.57;98727.38;5017865;27;103225;-69
2022/02/22 01:43:06;;;;;;;5.67;1.63;;;;;;;6.00;80.92;98733.91;5015757;27;102678;-69
2022/02/22 01:45:36;;;;;;;6.53;1.60;;;;;;;5.95;81.53;98730.66;5021225;27;103784;-69
2022/02/22 01:48:06;;;;;;;6.77;1.47;;;;;;;6.01;81.73;98732.13;5014042;27;103217;-68
2022/02/22 01:50:34;;;;;;;5.60;1.60;;;;;;;5.92;81.89;98738.72;5019973;27;103190;-69
2022/02/22 01:53:02;;;;;;;3.60;1.20;;;;;;;5.97;82.51;98741.09;5019683;27;102857;-69
2022/02/22 01:55:30;;;;;;;4.70;1.70;;;;;;;5.95;82.28;98746.41;5020078;27;102693;-69
2022/02/22 01:57:58;;;;;;;8.43;1.67;;;;;;;5.90;82.94;98747.56;5020627;27;102978;-69
2022/02/22 02:00:27;;;;;;;6.07;1.37;;;;;;;5.75;83.15;98734.31;5022264;27;103200;-69
2022/02/22 02:02:55;;;;;;;5.13;1.60;;;;;;;5.76;83.34;98746.50;5014656;27;102715;-69
2022/02/22 02:05:25;;;;;;;5.60;1.67;;;;;;;5.73;82.67;98751.03;5023345;27;104102;-69
2022/02/22 02:07:54;;;;;;;5.27;1.60;;;;;;;5.71;82.73;98747.66;5016717;27;104159;-69
2022/02/22 02:10:22;;;;;;;4.67;1.50;;;;;;;5.60;83.17;98734.25;5021837;27;103196;-69
2022/02/22 02:12:49;;;;;;;5.17;1.70;;;;;;;5.45;82.67;98740.28;5022321;27;102641;-67
2022/02/22 02:15:17;;;;;;;6.50;1.60;;;;;;;5.61;81.90;98735.97;5021318;27;103567;-69
2022/02/22 02:17:45;;;;;;;4.63;1.80;;;;;;;5.59;81.17;98732.56;5022369;27;103029;-69
2022/02/22 02:20:13;;;;;;;4.13;1.33;;;;;;;5.52;81.96;98731.19;5020003;27;103276;-69
2022/02/22 02:22:43;;;;;;;4.03;1.43;;;;;;;5.50;81.34;98738.31;5015783;27;102626;-69
2022/02/22 02:25:12;;;;;;;6.47;1.43;;;;;;;5.57;80.40;98740.50;5023231;27;103127;-66
2022/02/22 02:27:43;;;;;;;5.43;1.40;;;;;;;5.66;80.47;98752.31;5019263;27;103100;-67
2022/02/22 02:30:17;;;;;;;4.30;1.30;;;;;;;5.52;80.82;98752.16;5020568;27;104173;-67
2022/02/22 02:32:45;;;;;;;4.07;1.67;;;;;;;5.42;81.08;98749.16;5020764;27;102533;-66
2022/02/22 02:35:13;;;;;;;4.07;1.97;;;;;;;5.47;81.04;98739.31;5022540;27;103848;-67
2022/02/22 02:37:43;;;;;;;5.87;1.67;;;;;;;5.46;81.26;98747.22;5022260;27;103651;-67
2022/02/22 02:40:31;;;;;;;5.93;1.77;;;;;;;5.42;81.44;98750.94;5020951;27;103361;-67
2022/02/22 02:42:59;;;;;;;4.90;1.57;;;;;;;5.42;81.38;98751.78;5020567;27;102714;-67
2022/02/22 02:45:27;;;;;;;5.47;1.50;;;;;;;5.40;81.21;98747.53;5021156;27;104218;-67
2022/02/22 02:47:55;;;;;;;4.43;1.47;;;;;;;5.41;80.95;98746.63;5020360;27;104400;-69
2022/02/22 02:50:25;;;;;;;5.97;1.90;;;;;;;5.47;80.49;98754.19;5022627;27;103241;-67
2022/02/22 02:52:54;;;;;;;7.57;1.70;;;;;;;5.44;80.15;98759.56;5015736;27;102753;-66
2022/02/22 02:55:22;;;;;;;4.20;1.63;;;;;;;5.45;79.86;98756.84;5017691;27;103685;-66
2022/02/22 02:57:51;;;;;;;5.33;1.30;;;;;;;5.43;79.70;98756.09;5019802;27;103201;-67
2022/02/22 03:00:18;;;;;;;7.30;2.00;;;;;;;5.39;79.49;98762.41;5022876;27;103166;-66
2022/02/22 03:02:46;;;;;;;5.33;1.57;;;;;;;5.36;79.27;98773.03;5014807;27;102725;-66
2022/02/22 03:05:14;;;;;;;7.77;1.30;;;;;;;5.36;78.72;98778.28;5022360;27;102970;-66
2022/02/22 03:07:44;;;;;;;6.10;1.60;;;;;;;5.42;78.67;98783.22;5023119;27;103600;-66
2022/02/22 03:10:16;;;;;;;4.57;1.63;;;;;;;5.47;78.13;98781.22;5034035;27;104086;-66
2022/02/22 03:12:44;;;;;;;4.30;1.27;;;;;;;5.47;77.63;98776.00;5020619;27;102944;-69
2022/02/22 03:15:12;;;;;;;4.60;1.40;;;;;;;5.44;76.81;98780.53;5015844;27;104092;-66
2022/02/22 03:17:40;;;;;;;5.50;2.00;;;;;;;5.50;77.26;98799.38;5019589;27;103237;-66
2022/02/22 03:20:09;;;;;;;5.60;1.80;;;;;;;5.57;77.55;98797.31;5018695;27;103225;-66
2022/02/22 03:22:37;;;;;;;8.00;1.77;;;;;;;5.48;78.33;98809.13;5023092;27;102971;-69
2022/02/22 03:25:06;;;;;;;7.50;2.27;;;;;;;5.46;78.32;98818.84;5019596;27;104297;-69
2022/02/22 03:27:36;;;;;;;7.33;1.53;;;;;;;5.56;77.99;98811.34;5019520;27;103158;-66
2022/02/22 03:30:05;;;;;;;5.97;1.90;;;;;;;5.56;78.08;98816.56;5021845;27;103213;-66
2022/02/22 03:32:33;;;;;;;5.90;1.43;;;;;;;5.49;78.31;98826.53;5022489;27;102619;-69
2022/02/22 03:35:01;;;;;;;4.27;1.50;;;;;;;5.49;78.43;98830.94;5017044;27;102786;-70
2022/02/22 03:37:28;;;;;;;4.80;1.30;;;;;;;5.36;79.48;98830.66;5022179;27;104005;-66
2022/02/22 03:39:56;;;;;;;4.70;1.83;;;;;;;5.34;79.50;98826.44;5018845;27;103232;-69
2022/02/22 03:42:24;;;;;;;4.70;1.80;;;;;;;5.30;80.05;98841.47;5021157;27;102670;-66
2022/02/22 03:44:54;;;;;;;4.23;1.50;;;;;;;5.28;80.12;98848.53;5020564;27;103650;-67
2022/02/22 03:47:22;;;;;;;6.70;1.87;;;;;;;5.28;80.64;98854.63;5021478;27;103719;-69
2022/02/22 03:49:50;;;;;;;5.70;1.73;;;;;;;5.34;80.26;98855.25;5020312;27;103122;-69
2022/02/22 03:52:17;;;;;;;2.70;1.20;;;;;;;5.40;80.19;98860.19;5017178;27;102716;-66
2022/02/22 03:54:45;;;;;;;5.87;1.77;;;;;;;5.38;79.79;98848.97;5022057;27;102719;-66
2022/02/22 03:57:13;;;;;;;5.27;1.53;;;;;;;5.33;79.82;98861.44;5021674;27;103716;-66
2022/02/22 03:59:43;;;;;;;3.53;1.80;;;;;;;5.35;79.60;98854.34;5021953;27;103200;-66
2022/02/22 04:02:12;;;;;;;3.37;1.27;;;;;;;5.41;79.47;98856.66;5017807;27;102676;-69
2022/02/22 04:04:40;;;;;;;4.93;1.77;;;;;;;5.29;80.27;98847.63;5019362;27;103747;-69
2022/02/22 04:07:08;;;;;;;3.23;1.60;;;;;;;5.22;82.00;98867.19;5021462;27;103210;-67
2022/02/22 04:09:36;;;;;;;6.10;2.10;;;;;;;5.17;83.45;98882.25;5019181;27;103189;-69
2022/02/22 04:12:04;;;;;;;5.73;1.33;;;;;;;5.13;83.01;98878.97;5019296;27;102807;-66
2022/02/22 04:14:32;;;;;;;7.00;1.53;;;;;;;5.08;83.09;98888.78;5015545;27;103368;-69
2022/02/22 04:17:00;;;;;;;4.47;1.70;;;;;;;4.94;83.31;98896.44;5017947;27;103210;-69
2022/02/22 04:19:32;;;;;;;3.17;1.50;;;;;;;4.89;83.77;98898.44;5017877;27;104311;-66
2022/02/22 04:21:59;;;;;;;5.03;1.60;;;;;;;4.84;85.72;98905.66;5021418;27;102796;-66
2022/02/22 04:24:27;;;;;;;5.37;1.63;;;;;;;4.87;86.47;98900.28;5019136;27;102702;-67
2022/02/22 04:26:56;;;;;;;5.30;2.20;;;;;;;4.87;86.55;98902.91;5020411;27;103915;-69
2022/02/22 04:29:24;;;;;;;3.90;1.90;;;;;;;4.87;88.10;98918.59;5020604;27;102982;-66
2022/02/22 04:31:52;;;;;;;5.50;2.10;;;;;;;4.93;87.81;98920.94;5017712;27;102723;-69
2022/02/22 04:34:20;;;;;;;4.53;2.20;;;;;;;4.98;87.84;98920.72;5021415;27;104384;-66
2022/02/22 04:36:49;;;;;;;4.27;1.87;;;;;;;5.12;87.50;98921.78;5018692;27;104224;-66
2022/02/22 04:39:17;;;;;;;5.80;1.77;;;;;;;5.00;87.51;98927.56;5018605;27;103173;-69
2022/02/22 04:41:45;;;;;;;6.87;1.90;;;;;;;4.97;86.59;98940.00;5016722;27;103461;-69
2022/02/22 04:44:13;;;;;;;5.53;2.47;;;;;;;5.03;86.45;98935.28;5020844;27;104313;-70
2022/02/22 04:46:41;;;;;;;5.13;2.00;;;;;;;4.98;85.77;98955.63;5020383;27;103344;-69
2022/02/22 04:49:09;;;;;;;4.50;1.73;;;;;;;5.04;86.68;98949.25;5017028;27;104317;-70
2022/02/22 04:51:38;;;;;;;3.37;1.50;;;;;;;4.97;84.91;98951.28;5018560;27;102741;-70
2022/02/22 04:54:08;;;;;;;3.83;1.70;;;;;;;5.03;84.64;98948.38;5020317;27;102625;-70
2022/02/22 04:56:36;;;;;;;2.83;1.70;;;;;;;4.98;84.12;98950.38;5014187;27;103225;-70
2022/02/22 04:59:04;;;;;;;7.20;2.03;;;;;;;4.89;84.29;98961.25;5013448;27;104119;-70
2022/02/22 05:01:35;;;;;;;5.07;2.13;;;;;;;4.82;84.34;98959.00;5021163;27;102564;-70
2022/02/22 05:04:03;;;;;;;9.50;1.60;;;;;;;4.88;84.21;98971.81;5022055;27;102583;-70
2022/02/22 05:06:30;;;;;;;6.60;1.80;;;;;;;4.84;84.41;98978.09;5010549;27;103960;-68
2022/02/22 05:09:01;;;;;;;6.40;1.57;;;;;;;4.82;84.87;98967.72;5015734;28;103175;-68
2022/02/22 05:11:30;;;;;;;7.83;2.27;;;;;;;4.71;84.90;98976.94;5017141;27;102562;-68
2022/02/22 05:13:58;;;;;;;7.77;2.00;;;;;;;4.83;84.81;98969.38;5024418;27;102715;-70
2022/02/22 05:16:28;;;;;;;7.97;2.07;;;;;;;4.78;85.14;98981.84;5020889;27;103355;-70
2022/02/22 05:18:56;;;;;;;5.90;2.50;;;;;;;4.84;85.09;98999.91;5015922;27;103181;-68
2022/02/22 05:21:27;;;;;;;5.50;2.07;;;;;;;4.95;84.65;98991.56;5020127;27;102627;-68
2022/02/22 05:23:54;;;;;;;9.33;2.00;;;;;;;4.89;85.19;98997.91;5021070;27;102712;-68
2022/02/22 05:26:22;;;;;;;9.40;2.20;;;;;;;4.76;85.50;99002.00;5013395;27;103622;-68
2022/02/22 05:28:52;;;;;;;7.97;2.00;;;;;;;4.77;85.52;99008.94;5019253;27;103211;-68
2022/02/22 05:31:20;;;;;;;5.97;1.97;;;;;;;4.74;85.33;99009.09;5019776;27;102620;-68
2022/02/22 05:33:48;;;;;;;6.93;2.60;;;;;;;4.72;85.03;99008.28;5017261;27;103972;-68
2022/02/22 05:36:16;;;;;;;5.87;2.00;;;;;;;4.78;85.45;99015.88;5019883;27;103943;-68
2022/02/22 05:38:44;;;;;;;7.77;1.97;;;;;;;4.64;85.30;99018.22;5017828;27;104183;-68
2022/02/22 05:41:13;;;;;;;5.27;1.83;;;;;;;4.71;85.29;99027.53;5020032;27;102887;-69
2022/02/22 05:43:41;;;;;;;6.13;2.17;;;;;;;4.59;85.56;99017.59;5018811;27;102681;-68
2022/02/22 05:46:13;;;;;;;9.13;2.13;;;;;;;4.58;85.56;99021.13;5008486;27;103372;-67
2022/02/22 05:48:41;;;;;;;4.90;1.93;;;;;;;4.57;85.66;99016.81;5012313;27;102924;-67
2022/02/22 05:51:10;;;;;;;3.50;1.60;;;;;;;4.61;85.48;99013.13;5004391;27;103139;-67
2022/02/22 05:53:38;;;;;;;5.33;1.60;;;;;;;4.64;85.35;99007.75;4999671;27;103887;-67
2022/02/22 05:56:06;;;;;;;7.97;2.10;;;;;;;4.60;85.09;99016.69;5006408;27;104135;-68
2022/02/22 05:58:34;;;;;;;3.83;1.60;;;;;;;4.61;84.71;99023.59;5010955;27;104160;-68
2022/02/22 06:01:03;;;;;;;5.10;2.63;;;;;;;4.55;84.38;99023.84;5004828;27;102908;-67
2022/02/22 06:03:34;;;;;;;4.03;1.50;;;;;;;4.49;84.51;99029.38;5009718;27;102701;-67
2022/02/22 06:06:02;;;;;;;7.10;2.23;;;;;;;4.40;84.24;99040.22;5016319;27;103934;-67
2022/02/22 06:08:30;;;;;;;6.40;1.93;;;;;;;4.45;83.78;99039.13;5013072;27;104093;-69
2022/02/22 06:10:58;;;;;;;7.47;1.90;;;;;;;4.54;83.83;99035.25;5018565;27;102641;-70
2022/02/22 06:13:26;;;;;;;6.60;1.93;;;;;;;4.48;83.60;99044.22;5019623;27;103282;-68
2022/02/22 06:15:54;;;;;;;5.73;1.63;;;;;;;4.51;83.30;99056.31;5016839;27;103269;-68
2022/02/22 06:18:22;;;;;;;6.77;1.80;;;;;;;4.41;83.70;99055.00;5018588;27;103207;-69
2022/02/22 06:20:52;;;;;;;4.83;1.90;;;;;;;4.52;82.83;99060.66;5017522;27;103036;-68
2022/02/22 06:23:23;;;;;;;6.70;2.23;;;;;;;4.48;83.07;99054.69;5015695;27;103361;-68
2022/02/22 06:25:51;;;;;;;4.97;1.80;;;;;;;4.51;83.43;99053.72;5019095;27;103991;-68
2022/02/22 06:28:19;;;;;;;4.20;1.53;;;;;;;4.54;83.13;99056.19;5016945;27;103199;-68
2022/02/22 06:30:48;;;;;;;9.43;2.43;;;;;;;4.46;83.23;99056.50;5017638;27;103202;-68
2022/02/22 06:33:16;;;;;;;5.80;2.23;;;;;;;4.52;83.46;99061.47;5015451;27;102724;-68
2022/02/22 06:35:44;;;;;;;13.50;2.60;;;;;;;4.53;83.75;99070.19;5017711;27;103102;-69
2022/02/22 06:38:14;;;;;;;10.07;2.10;;;;;;;4.59;83.66;99067.31;5015037;27;103778;-69
2022/02/22 06:40:42;;;;;;;8.70;3.00;;;;;;;4.59;84.34;99067.31;5015573;27;102774;-68
2022/02/22 06:43:10;;;;;;;5.50;2.30;;;;;;;4.62;84.62;99067.19;5018681;27;102624;-68
2022/02/22 06:45:38;;;;;;;4.53;2.43;;;;;;;4.75;84.10;99073.59;5019573;27;103961;-69
2022/02/22 06:48:07;;;;;;;9.70;2.80;;;;;;;4.78;83.98;99076.06;5010689;27;102983;-68
2022/02/22 06:50:37;;;;;;;7.37;2.43;;;;;;;4.79;84.23;99080.41;5014200;27;102921;-68
2022/02/22 06:53:05;;;;;;;6.90;2.60;;;;;;;4.78;84.62;99083.94;5017575;27;103860;-69
2022/02/22 06:55:35;;;;;;;5.20;2.40;;;;;;;4.89;84.34;99088.69;5017548;27;103244;-68
2022/02/22 06:58:06;;;;;;;6.63;2.30;;;;;;;4.87;84.70;99094.00;5022821;27;103181;-68
2022/02/22 07:00:35;;;;;;;8.10;2.53;;;;;;;4.88;84.22;99089.63;5025782;27;102669;-68
2022/02/22 07:03:04;;;;;;;5.80;2.30;;;;;;;4.85;85.02;99105.47;5009904;27;102691;-67
2022/02/22 07:05:34;;;;;;;10.67;3.13;;;;;;;4.85;84.46;99111.56;5024085;27;104388;-68
2022/02/22 07:08:02;;;;;;;6.33;2.77;;;;;;;4.99;84.10;99118.81;5011566;27;103268;-69
2022/02/22 07:10:30;;;;;;;8.07;2.80;;;;;;;4.99;84.68;99124.06;5018683;27;102501;-68
2022/02/22 07:12:59;;;;;;;6.10;2.47;;;;;;;5.17;84.25;99125.88;5019700;27;103711;-68
2022/02/22 07:15:28;;;;;;;8.53;2.60;;;;;;;5.37;82.97;99124.97;5021393;27;103803;-69
2022/02/22 07:17:58;;;;;;;9.13;2.90;;;;;;;5.61;83.48;99137.00;5019212;27;103231;-69
2022/02/22 07:20:27;;;;;;;4.13;1.87;;;;;;;5.91;82.54;99153.13;5021412;27;102721;-69
2022/02/22 07:22:56;;;;;;;6.17;2.60;;;;;;;5.67;82.50;99160.31;5018100;27;103795;-69
2022/02/22 07:25:26;;;;;;;11.03;3.20;;;;;;;5.55;83.11;99161.72;5020764;27;104105;-68
2022/02/22 07:27:54;;;;;;;7.00;2.43;;;;;;;5.45;83.54;99170.03;5036236;27;104224;-69
2022/02/22 07:30:23;;;;;;;10.97;3.40;;;;;;;5.49;83.35;99177.72;5019476;27;102946;-69
2022/02/22 07:32:55;;;;;;;6.50;2.90;;;;;;;5.52;84.29;99181.97;5016918;27;103536;-68
2022/02/22 07:35:24;;;;;;;7.40;2.70;;;;;;;5.62;83.80;99189.34;5014297;27;104310;-69
2022/02/22 07:37:52;;;;;;;7.63;2.73;;;;;;;5.59;84.17;99193.88;5019999;27;104187;-68
2022/02/22 07:40:21;;;;;;;7.83;2.87;;;;;;;5.50;84.77;99202.97;5018051;27;102650;-67
2022/02/22 07:42:54;;;;;;;10.30;3.03;;;;;;;5.60;84.56;99203.44;5018412;27;103897;-67
2022/02/22 07:45:22;;;;;;;11.60;3.03;;;;;;;5.74;83.63;99201.06;5017855;27;103293;-67
2022/02/22 07:47:51;;;;;;;9.73;3.13;;;;;;;5.93;83.20;99199.34;5016814;27;103206;-68
2022/02/22 07:50:19;;;;;;;9.07;3.03;;;;;;;5.74;82.96;99209.78;5017336;27;103839;-68
2022/02/22 07:52:47;;;;;;;7.73;2.40;;;;;;;6.04;82.87;99212.81;5014588;27;102759;-69
2022/02/22 07:55:15;;;;;;;10.80;2.77;;;;;;;6.15;81.92;99210.53;5019723;27;104142;-68
2022/02/22 07:57:47;;;;;;;9.90;2.60;;;;;;;6.31;80.99;99216.81;5021080;27;103385;-68
2022/02/22 08:00:15;;;;;;;7.97;2.33;;;;;;;6.14;81.14;99215.88;5021278;27;103153;-69
2022/02/22 08:02:48;;;;;;;11.27;2.60;;;;;;;6.62;79.00;99217.97;5019161;27;103725;-68
2022/02/22 08:05:17;;;;;;;10.70;3.53;;;;;;;6.43;80.10;99225.00;5017682;27;103268;-69
2022/02/22 08:07:45;;;;;;;7.83;2.90;;;;;;;6.35;79.37;99234.09;5019137;27;103208;-69
2022/02/22 08:10:13;;;;;;;7.10;2.60;;;;;;;6.18;79.43;99231.38;5020560;27;102676;-69
2022/02/22 08:12:41;;;;;;;9.10;2.63;;;;;;;6.57;78.14;99233.91;5021272;27;102765;-68
2022/02/22 08:15:10;;;;;;;10.43;2.83;;;;;;;6.66;78.01;99251.88;5018066;27;103608;-69
2022/02/22 08:17:40;;;;;;;7.73;2.27;;;;;;;6.68;77.18;99257.06;5018808;27;103056;-67
2022/02/22 08:20:10;;;;;;;8.47;2.60;;;;;;;6.88;76.43;99259.56;5017617;27;103957;-67
2022/02/22 08:22:39;;;;;;;8.87;3.10;;;;;;;7.22;74.89;99267.47;5018755;27;104083;-68
2022/02/22 08:25:08;;;;;;;10.40;2.80;;;;;;;7.15;75.13;99266.09;5017701;27;104212;-68
2022/02/22 08:27:38;;;;;;;12.07;2.50;;;;;;;7.68;74.20;99262.53;5019707;27;103258;-69
2022/02/22 08:30:07;;;;;;;9.10;2.30;;;;;;;7.66;73.57;99269.66;5020781;27;102640;-69
2022/02/22 08:32:36;;;;;;;8.53;3.33;;;;;;;7.86;71.79;99272.09;5019763;27;102726;-67
2022/02/22 08:35:04;;;;;;;9.10;2.60;;;;;;;7.86;71.72;99286.09;5032239;27;103821;-67
2022/02/22 08:37:33;;;;;;;8.30;2.57;;;;;;;7.50;72.14;99277.47;5020496;27;103301;-68
2022/02/22 08:40:02;;;;;;;9.90;2.87;;;;;;;7.37;73.59;99285.13;5015499;27;102617;-67
2022/02/22 08:42:31;;;;;;;7.47;2.30;;;;;;;7.42;73.03;99277.84;5018563;27;104116;-68
2022/02/22 08:45:19;;;;;;;9.20;2.70;;;;;;;7.40;73.54;99284.97;5021931;27;103234;-67
2022/02/22 08:47:47;;;;;;;8.33;2.20;;;;;;;7.32;73.42;99287.16;5013372;27;103281;-67
2022/02/22 08:50:15;;;;;;;8.03;2.40;;;;;;;7.55;73.44;99292.06;5015004;27;102903;-68
2022/02/22 08:52:44;;;;;;;9.77;2.83;;;;;;;7.48;74.47;99289.84;5014035;27;103649;-67
2022/02/22 08:55:15;;;;;;;9.87;2.60;;;;;;;7.41;73.81;99291.91;5018985;27;104187;-68
2022/02/22 08:57:44;;;;;;;9.33;2.50;;;;;;;7.18;74.31;99281.72;5012184;27;104448;-67
2022/02/22 09:00:12;;;;;;;6.50;2.17;;;;;;;7.19;74.85;99290.44;5007409;27;102699;-69
2022/02/22 09:02:41;;;;;;;6.00;2.47;;;;;;;7.22;74.38;99296.41;5013516;27;103026;-69
2022/02/22 09:05:10;;;;;;;10.93;2.70;;;;;;;7.27;73.82;99289.13;5018591;27;103422;-67
2022/02/22 09:07:39;;;;;;;9.03;2.67;;;;;;;7.39;74.02;99298.19;5018656;27;103213;-67
2022/02/22 09:10:08;;;;;;;6.23;2.40;;;;;;;7.44;74.17;99299.66;5012971;27;102751;-67
2022/02/22 09:12:38;;;;;;;5.10;2.27;;;;;;;7.62;74.46;99304.91;5016534;27;104024;-67
2022/02/22 09:15:07;;;;;;;8.40;2.00;;;;;;;7.56;73.54;99300.81;5017261;27;104050;-67
2022/02/22 09:17:35;;;;;;;7.43;2.50;;;;;;;7.68;73.60;99304.59;5019925;27;103327;-67
2022/02/22 09:20:05;;;;;;;8.37;2.63;;;;;;;7.59;73.79;99296.25;5021503;27;102871;-69
2022/02/22 09:22:33;;;;;;;7.20;2.30;;;;;;;7.66;73.39;99306.47;5019741;27;102835;-67
2022/02/22 09:25:06;;;;;;;8.07;2.40;;;;;;;7.63;73.55;99298.75;5012871;27;104159;-67
2022/02/22 09:27:34;;;;;;;7.90;2.63;;;;;;;7.67;73.40;99302.91;5017793;27;104139;-67
2022/02/22 09:30:03;;;;;;;9.97;2.80;;;;;;;7.58;73.64;99298.94;5017538;27;102469;-67
2022/02/22 09:32:32;;;;;;;7.47;2.30;;;;;;;7.61;74.04;99297.97;5018905;27;103288;-67
2022/02/22 09:34:59;;;;;;;7.20;2.57;;;;;;;7.61;73.43;99297.97;5018889;27;104160;-67
2022/02/22 09:37:28;;;;;;;6.57;1.93;;;;;;;7.68;73.57;99309.88;5022085;27;103021;-67
2022/02/22 09:39:56;;;;;;;8.63;2.40;;;;;;;7.80;73.43;99319.78;5019363;27;102800;-67
2022/02/22 09:42:25;;;;;;;8.67;2.40;;;;;;;8.00;73.53;99311.72;5021481;27;102696;-69
2022/02/22 09:44:56;;;;;;;5.33;2.20;;;;;;;7.76;73.39;99315.59;5017746;27;102973;-70
2022/02/22 09:47:27;;;;;;;7.43;2.57;;;;;;;7.80;73.02;99314.50;5015473;27;103255;-69
2022/02/22 09:49:55;;;;;;;6.57;1.80;;;;;;;8.12;73.19;99316.31;5016865;27;102491;-70
2022/02/22 09:52:23;;;;;;;9.73;2.73;;;;;;;8.25;73.14;99312.13;5016801;27;104176;-67
2022/02/22 09:54:51;;;;;;;8.17;2.27;;;;;;;8.02;72.33;99313.31;5016662;27;104358;-67
2022/02/22 09:57:19;;;;;;;7.60;2.47;;;;;;;8.35;72.77;99309.84;5007490;27;103523;-67
2022/02/22 09:59:47;;;;;;;6.40;2.23;;;;;;;8.55;71.80;99315.75;5020695;27;102627;-67
2022/02/22 10:02:16;;;;;;;6.60;2.33;;;;;;;8.49;71.49;99310.81;5020750;27;102847;-67
2022/02/22 10:04:48;;;;;;;5.13;1.60;;;;;;;8.54;71.65;99303.50;5017137;27;104138;-67
2022/02/22 10:07:18;;;;;;;6.20;1.93;;;;;;;8.39;71.48;99304.38;5015962;27;103229;-67
2022/02/22 10:09:54;;;;;;;7.67;2.63;;;;;;;8.36;70.62;99309.78;5016306;27;102763;-67
2022/02/22 10:12:31;;;;;;;7.10;2.33;;;;;;;8.53;70.49;99312.34;5019333;27;103711;-67
2022/02/22 10:15:00;;;;;;;10.23;2.60;;;;;;;8.28;70.94;99303.22;5013185;27;103908;-67
2022/02/22 10:17:36;;;;;;;10.20;3.43;;;;;;;8.57;70.44;99303.34;5013733;27;103236;-69
2022/02/22 10:20:09;;;;;;;11.43;2.33;;;;;;;8.62;70.56;99306.56;5016926;27;102658;-69
2022/02/22 10:22:47;;;;;;;8.93;2.30;;;;;;;8.76;70.79;99303.19;5020228;27;104280;-69
2022/02/22 10:25:16;;;;;;;8.47;2.40;;;;;;;8.87;69.75;99294.69;5014123;27;103363;-69
2022/02/22 10:27:47;;;;;;;7.07;2.30;;;;;;;8.81;69.19;99284.50;5019550;27;103212;-69
2022/02/22 10:30:32;;;;;;;7.10;2.33;;;;;;;8.84;68.29;99305.41;5021724;27;103399;-69
2022/02/22 10:33:01;;;;;;;8.07;2.80;;;;;;;8.81;68.72;99302.94;5019184;27;102860;-67
2022/02/22 10:35:34;;;;;;;4.87;2.20;;;;;;;8.88;69.08;99302.50;5016190;27;103904;-67
2022/02/22 10:38:12;;;;;;;9.37;2.60;;;;;;;8.96;68.25;99302.06;5017131;27;103204;-68
2022/02/22 10:40:41;;;;;;;6.73;2.60;;;;;;;8.94;68.59;99301.31;5017399;27;102699;-68
2022/02/22 10:43:20;;;;;;;8.30;2.40;;;;;;;9.09;69.12;99297.81;5020642;27;102856;-68
2022/02/22 10:45:49;;;;;;;10.13;2.70;;;;;;;9.32;68.40;99297.31;5022737;27;103179;-68
2022/02/22 10:48:38;;;;;;;7.80;2.83;;;;;;;9.57;68.57;99302.88;5022677;27;103287;-68
2022/02/22 10:51:11;;;;;;;6.57;2.00;;;;;;;9.63;67.61;99291.97;5015350;27;102995;-68
2022/02/22 10:53:46;;;;;;;9.63;2.33;;;;;;;9.30;67.83;99300.06;5018990;27;103065;-68
2022/02/22 10:56:16;;;;;;;13.50;2.97;;;;;;;9.49;68.28;99294.56;5019811;27;103079;-68
2022/02/22 10:58:45;;;;;;;8.13;2.33;;;;;;;9.69;67.76;99296.03;5018982;27;103243;-68
2022/02/22 11:01:19;;;;;;;5.43;2.30;;;;;;;9.63;67.58;99307.78;5020425;27;102823;-68
2022/02/22 11:03:47;;;;;;;9.13;2.30;;;;;;;9.31;68.14;99298.28;5019058;27;102666;-70
2022/02/22 11:06:19;;;;;;;8.90;2.50;;;;;;;9.07;68.75;99307.56;5020163;27;103800;-70
2022/02/22 11:08:49;;;;;;;6.87;2.67;;;;;;;8.89;68.71;99306.84;5020195;27;103848;-70
2022/02/22 11:11:39;;;;;;;7.03;2.80;;;;;;;8.78;69.80;99305.75;5013777;27;102965;-70
2022/02/22 11:14:13;;;;;;;9.50;2.80;;;;;;;8.69;69.60;99315.84;5023255;27;102817;-70
2022/02/22 11:16:43;;;;;;;8.10;2.70;;;;;;;8.80;69.55;99315.25;5018658;27;103069;-70
2022/02/22 11:19:20;;;;;;;7.30;3.10;;;;;;;8.56;70.24;99317.44;5016817;27;103124;-70
2022/02/22 11:21:52;;;;;;;10.37;2.90;;;;;;;8.55;70.43;99310.50;5015680;27;102648;-70
2022/02/22 11:24:24;;;;;;;6.97;2.53;;;;;;;8.65;70.36;99295.88;5022741;27;102707;-70
2022/02/22 11:26:55;;;;;;;10.03;2.70;;;;;;;8.69;69.79;99300.06;5021333;27;103290;-69
2022/02/22 11:29:25;;;;;;;10.17;2.73;;;;;;;8.97;69.80;99291.44;5019612;27;104168;-68
2022/02/22 11:31:58;;;;;;;9.57;3.13;;;;;;;9.24;69.94;99289.00;5014066;27;102605;-68
2022/02/22 11:34:32;;;;;;;11.13;3.37;;;;;;;9.21;69.58;99283.91;5005036;27;102688;-70
2022/02/22 11:37:04;;;;;;;10.20;2.77;;;;;;;9.14;69.15;99282.59;5018617;27;103105;-69
2022/02/22 11:39:43;;;;;;;7.30;2.10;;;;;;;9.06;69.26;99264.59;5019384;27;103161;-69
2022/02/22 11:42:20;;;;;;;13.53;3.63;;;;;;;8.98;69.12;99265.94;5020255;27;103032;-68